CheckWX is a tool to help pilots better visualize weather data.  It is not intended as a substitute for an official pre-flight weather briefing.

15:11:59 UTC

VDPP METAR
Phnom Penh International Airport
Phnom Penh, Cambodia
Current

42 mins ago

VDPP 221430Z VRB02KT 9000 FEW017 FEW020CB 31/24 Q1008 CB:W
Observed
Oct-22 @ 14:30 UTC
Wind
  • Variable at 2 KTS
Visibility
9,000 meters
Flight Rules
VFR
Cloud Levels
  • Few at 1,700' AGL
  • Few at 2,000' AGL
Temperature
31°C / 88°F
Dewpoint
24°C / 75°F
Heat Index
37°C / 98°F
Humidity
66%
Altimeter
29.76" Hg
Pressure
1007.92 hPa
Previous

1 hour ago

VDPP 221400Z 30003KT 9000 FEW017 FEW020CB 31/23 Q1008 CB:W
Observed
Oct-22 @ 14:00 UTC
Wind
  • 300° at 3 KTS
Visibility
9,000 meters
Flight Rules
VFR
Cloud Levels
  • Few at 1,700' AGL
  • Few at 2,000' AGL
Temperature
31°C / 88°F
Dewpoint
23°C / 73°F
Heat Index
36°C / 96°F
Humidity
62%
Altimeter
29.76" Hg
Pressure
1007.92 hPa
Previous

2 hours ago

VDPP 221330Z 31002KT 9000 FEW017 FEW020CB 31/23 Q1008 CB:W
Observed
Oct-22 @ 13:30 UTC
Wind
  • 310° at 2 KTS
Visibility
9,000 meters
Flight Rules
VFR
Cloud Levels
  • Few at 1,700' AGL
  • Few at 2,000' AGL
Temperature
31°C / 88°F
Dewpoint
23°C / 73°F
Heat Index
36°C / 96°F
Humidity
62%
Altimeter
29.76" Hg
Pressure
1007.92 hPa